sensor_id;sensor_type;location;lat;lon;timestamp;P1;durP1;ratioP1;P2;durP2;ratioP2
8474;SDS011;4274;52.012;8.448;2023-03-03T00:00:55;92.57;;;23.47;;
8474;SDS011;4274;52.012;8.448;2023-03-03T00:03:22;90.70;;;24.70;;
8474;SDS011;4274;52.012;8.448;2023-03-03T00:05:49;94.07;;;25.20;;
8474;SDS011;4274;52.012;8.448;2023-03-03T00:08:15;85.77;;;24.00;;
8474;SDS011;4274;52.012;8.448;2023-03-03T00:10:41;92.70;;;24.73;;
8474;SDS011;4274;52.012;8.448;2023-03-03T00:13:14;89.50;;;23.17;;
8474;SDS011;4274;52.012;8.448;2023-03-03T00:15:45;97.73;;;24.93;;
8474;SDS011;4274;52.012;8.448;2023-03-03T00:18:18;87.50;;;22.97;;
8474;SDS011;4274;52.012;8.448;2023-03-03T00:20:53;95.17;;;23.97;;
8474;SDS011;4274;52.012;8.448;2023-03-03T00:23:36;89.57;;;25.10;;
8474;SDS011;4274;52.012;8.448;2023-03-03T00:26:12;90.17;;;23.37;;
8474;SDS011;4274;52.012;8.448;2023-03-03T00:28:45;95.80;;;25.90;;
8474;SDS011;4274;52.012;8.448;2023-03-03T00:33:52;85.13;;;23.40;;
8474;SDS011;4274;52.012;8.448;2023-03-03T00:36:30;86.73;;;23.77;;
8474;SDS011;4274;52.012;8.448;2023-03-03T00:41:54;95.93;;;24.47;;
8474;SDS011;4274;52.012;8.448;2023-03-03T00:44:30;95.87;;;23.80;;
8474;SDS011;4274;52.012;8.448;2023-03-03T00:47:11;94.77;;;25.40;;
8474;SDS011;4274;52.012;8.448;2023-03-03T00:49:59;98.70;;;26.97;;
8474;SDS011;4274;52.012;8.448;2023-03-03T00:52:59;94.90;;;25.53;;
8474;SDS011;4274;52.012;8.448;2023-03-03T00:55:27;95.20;;;26.37;;
8474;SDS011;4274;52.012;8.448;2023-03-03T00:57:53;93.80;;;26.43;;
8474;SDS011;4274;52.012;8.448;2023-03-03T01:00:19;101.77;;;25.93;;
8474;SDS011;4274;52.012;8.448;2023-03-03T01:02:45;100.10;;;26.60;;
8474;SDS011;4274;52.012;8.448;2023-03-03T01:05:13;99.93;;;27.73;;
8474;SDS011;4274;52.012;8.448;2023-03-03T01:07:40;105.20;;;28.57;;
8474;SDS011;4274;52.012;8.448;2023-03-03T01:10:06;107.87;;;27.10;;
8474;SDS011;4274;52.012;8.448;2023-03-03T01:12:32;101.20;;;27.77;;
8474;SDS011;4274;52.012;8.448;2023-03-03T01:14:58;102.53;;;27.60;;
8474;SDS011;4274;52.012;8.448;2023-03-03T01:17:23;106.73;;;27.60;;
8474;SDS011;4274;52.012;8.448;2023-03-03T01:19:49;96.60;;;26.37;;
8474;SDS011;4274;52.012;8.448;2023-03-03T01:22:14;93.67;;;25.43;;
8474;SDS011;4274;52.012;8.448;2023-03-03T01:24:40;89.33;;;24.27;;
8474;SDS011;4274;52.012;8.448;2023-03-03T01:27:06;90.90;;;24.30;;
8474;SDS011;4274;52.012;8.448;2023-03-03T01:29:31;84.43;;;24.00;;
8474;SDS011;4274;52.012;8.448;2023-03-03T01:31:57;100.07;;;29.07;;
8474;SDS011;4274;52.012;8.448;2023-03-03T01:34:23;95.43;;;25.60;;
8474;SDS011;4274;52.012;8.448;2023-03-03T01:36:49;98.13;;;24.10;;
8474;SDS011;4274;52.012;8.448;2023-03-03T01:39:14;95.17;;;25.43;;
8474;SDS011;4274;52.012;8.448;2023-03-03T01:41:40;104.73;;;27.20;;
8474;SDS011;4274;52.012;8.448;2023-03-03T01:44:05;95.30;;;25.27;;
8474;SDS011;4274;52.012;8.448;2023-03-03T01:46:45;95.07;;;24.27;;
8474;SDS011;4274;52.012;8.448;2023-03-03T01:49:39;96.77;;;25.70;;
8474;SDS011;4274;52.012;8.448;2023-03-03T01:52:26;97.33;;;25.60;;
8474;SDS011;4274;52.012;8.448;2023-03-03T01:54:59;88.37;;;23.80;;
8474;SDS011;4274;52.012;8.448;2023-03-03T01:57:30;86.67;;;23.77;;
8474;SDS011;4274;52.012;8.448;2023-03-03T01:59:59;95.30;;;25.23;;
8474;SDS011;4274;52.012;8.448;2023-03-03T02:02:26;101.03;;;23.97;;
8474;SDS011;4274;52.012;8.448;2023-03-03T02:04:52;86.93;;;22.90;;
8474;SDS011;4274;52.012;8.448;2023-03-03T02:07:18;100.90;;;26.00;;
8474;SDS011;4274;52.012;8.448;2023-03-03T02:09:49;101.03;;;26.60;;
8474;SDS011;4274;52.012;8.448;2023-03-03T02:12:35;87.83;;;23.50;;
8474;SDS011;4274;52.012;8.448;2023-03-03T02:15:14;90.87;;;22.97;;
8474;SDS011;4274;52.012;8.448;2023-03-03T02:17:44;111.73;;;28.07;;
8474;SDS011;4274;52.012;8.448;2023-03-03T02:22:53;103.53;;;24.77;;
8474;SDS011;4274;52.012;8.448;2023-03-03T02:25:40;93.53;;;25.00;;
8474;SDS011;4274;52.012;8.448;2023-03-03T02:28:12;97.00;;;24.33;;
8474;SDS011;4274;52.012;8.448;2023-03-03T02:30:38;106.53;;;26.10;;
8474;SDS011;4274;52.012;8.448;2023-03-03T02:33:04;103.20;;;25.60;;
8474;SDS011;4274;52.012;8.448;2023-03-03T02:37:58;105.57;;;26.80;;
8474;SDS011;4274;52.012;8.448;2023-03-03T02:43:53;97.57;;;25.40;;
8474;SDS011;4274;52.012;8.448;2023-03-03T02:46:23;101.23;;;25.30;;
8474;SDS011;4274;52.012;8.448;2023-03-03T02:48:49;97.93;;;24.83;;
8474;SDS011;4274;52.012;8.448;2023-03-03T02:51:15;94.87;;;23.90;;
8474;SDS011;4274;52.012;8.448;2023-03-03T02:53:42;95.30;;;24.03;;
8474;SDS011;4274;52.012;8.448;2023-03-03T02:56:07;99.67;;;24.73;;
8474;SDS011;4274;52.012;8.448;2023-03-03T02:58:36;92.20;;;24.10;;
8474;SDS011;4274;52.012;8.448;2023-03-03T03:01:03;87.50;;;22.60;;
8474;SDS011;4274;52.012;8.448;2023-03-03T03:03:28;88.87;;;21.70;;
8474;SDS011;4274;52.012;8.448;2023-03-03T03:05:54;85.70;;;21.17;;
8474;SDS011;4274;52.012;8.448;2023-03-03T03:08:20;91.00;;;18.67;;
8474;SDS011;4274;52.012;8.448;2023-03-03T03:10:46;90.30;;;20.73;;
8474;SDS011;4274;52.012;8.448;2023-03-03T03:13:12;81.00;;;19.50;;
8474;SDS011;4274;52.012;8.448;2023-03-03T03:15:37;78.03;;;18.53;;
8474;SDS011;4274;52.012;8.448;2023-03-03T03:18:03;87.73;;;19.67;;
8474;SDS011;4274;52.012;8.448;2023-03-03T03:20:29;79.67;;;20.60;;
8474;SDS011;4274;52.012;8.448;2023-03-03T03:22:54;89.57;;;22.27;;
8474;SDS011;4274;52.012;8.448;2023-03-03T03:25:20;82.47;;;19.83;;
8474;SDS011;4274;52.012;8.448;2023-03-03T03:27:46;86.70;;;22.23;;
8474;SDS011;4274;52.012;8.448;2023-03-03T03:30:11;87.87;;;21.23;;
8474;SDS011;4274;52.012;8.448;2023-03-03T03:32:37;89.60;;;20.33;;
8474;SDS011;4274;52.012;8.448;2023-03-03T03:35:03;87.40;;;20.00;;
8474;SDS011;4274;52.012;8.448;2023-03-03T03:37:29;92.07;;;20.27;;
8474;SDS011;4274;52.012;8.448;2023-03-03T03:39:54;100.47;;;22.30;;
8474;SDS011;4274;52.012;8.448;2023-03-03T03:42:20;93.43;;;21.90;;
8474;SDS011;4274;52.012;8.448;2023-03-03T03:44:46;87.53;;;22.03;;
8474;SDS011;4274;52.012;8.448;2023-03-03T03:47:11;83.93;;;21.40;;
8474;SDS011;4274;52.012;8.448;2023-03-03T03:49:37;84.30;;;21.10;;
8474;SDS011;4274;52.012;8.448;2023-03-03T03:52:03;83.77;;;19.90;;
8474;SDS011;4274;52.012;8.448;2023-03-03T03:54:28;97.10;;;20.27;;
8474;SDS011;4274;52.012;8.448;2023-03-03T03:56:54;98.67;;;22.63;;
8474;SDS011;4274;52.012;8.448;2023-03-03T03:59:20;92.90;;;20.87;;
8474;SDS011;4274;52.012;8.448;2023-03-03T04:01:45;88.77;;;21.50;;
8474;SDS011;4274;52.012;8.448;2023-03-03T04:04:12;96.67;;;23.13;;
8474;SDS011;4274;52.012;8.448;2023-03-03T04:06:38;93.43;;;21.10;;
8474;SDS011;4274;52.012;8.448;2023-03-03T04:09:03;101.70;;;22.97;;
8474;SDS011;4274;52.012;8.448;2023-03-03T04:11:29;95.50;;;21.73;;
8474;SDS011;4274;52.012;8.448;2023-03-03T04:13:54;102.30;;;22.93;;
8474;SDS011;4274;52.012;8.448;2023-03-03T04:16:20;100.70;;;23.70;;
8474;SDS011;4274;52.012;8.448;2023-03-03T04:18:45;98.33;;;22.77;;
8474;SDS011;4274;52.012;8.448;2023-03-03T04:21:15;100.40;;;24.50;;
8474;SDS011;4274;52.012;8.448;2023-03-03T04:23:40;104.37;;;24.73;;
8474;SDS011;4274;52.012;8.448;2023-03-03T04:26:06;108.57;;;23.43;;
8474;SDS011;4274;52.012;8.448;2023-03-03T04:28:32;123.50;;;25.27;;
8474;SDS011;4274;52.012;8.448;2023-03-03T04:30:58;109.40;;;24.17;;
8474;SDS011;4274;52.012;8.448;2023-03-03T04:33:24;119.23;;;25.53;;
8474;SDS011;4274;52.012;8.448;2023-03-03T04:35:50;107.03;;;25.13;;
8474;SDS011;4274;52.012;8.448;2023-03-03T04:38:15;117.23;;;25.80;;
8474;SDS011;4274;52.012;8.448;2023-03-03T04:40:41;108.40;;;22.60;;
8474;SDS011;4274;52.012;8.448;2023-03-03T04:43:07;116.73;;;25.57;;
8474;SDS011;4274;52.012;8.448;2023-03-03T04:45:34;122.07;;;24.50;;
8474;SDS011;4274;52.012;8.448;2023-03-03T04:47:59;116.67;;;26.47;;
8474;SDS011;4274;52.012;8.448;2023-03-03T04:50:25;120.63;;;28.20;;
8474;SDS011;4274;52.012;8.448;2023-03-03T04:52:51;136.53;;;27.83;;
8474;SDS011;4274;52.012;8.448;2023-03-03T04:55:17;120.63;;;25.73;;
8474;SDS011;4274;52.012;8.448;2023-03-03T04:57:42;109.20;;;24.57;;
8474;SDS011;4274;52.012;8.448;2023-03-03T05:00:09;111.67;;;24.03;;
8474;SDS011;4274;52.012;8.448;2023-03-03T05:02:37;126.67;;;26.47;;
8474;SDS011;4274;52.012;8.448;2023-03-03T05:05:03;130.23;;;26.57;;
8474;SDS011;4274;52.012;8.448;2023-03-03T05:07:30;113.73;;;24.77;;
8474;SDS011;4274;52.012;8.448;2023-03-03T05:09:55;127.33;;;27.50;;
8474;SDS011;4274;52.012;8.448;2023-03-03T05:12:21;118.27;;;24.30;;
8474;SDS011;4274;52.012;8.448;2023-03-03T05:14:47;119.17;;;23.40;;
8474;SDS011;4274;52.012;8.448;2023-03-03T05:17:12;123.23;;;25.00;;
8474;SDS011;4274;52.012;8.448;2023-03-03T05:19:38;109.60;;;22.70;;
8474;SDS011;4274;52.012;8.448;2023-03-03T05:22:04;113.03;;;21.50;;
8474;SDS011;4274;52.012;8.448;2023-03-03T05:24:30;107.47;;;22.40;;
8474;SDS011;4274;52.012;8.448;2023-03-03T05:26:55;118.40;;;23.87;;
8474;SDS011;4274;52.012;8.448;2023-03-03T05:29:21;112.73;;;21.50;;
8474;SDS011;4274;52.012;8.448;2023-03-03T05:31:47;116.13;;;24.27;;
8474;SDS011;4274;52.012;8.448;2023-03-03T05:34:13;115.07;;;24.65;;
8474;SDS011;4274;52.012;8.448;2023-03-03T05:36:39;106.00;;;21.23;;
8474;SDS011;4274;52.012;8.448;2023-03-03T05:39:05;125.32;;;24.92;;
8474;SDS011;4274;52.012;8.448;2023-03-03T05:41:30;121.50;;;24.07;;
8474;SDS011;4274;52.012;8.448;2023-03-03T05:43:56;131.17;;;23.80;;
8474;SDS011;4274;52.012;8.448;2023-03-03T05:46:21;110.37;;;21.50;;
8474;SDS011;4274;52.012;8.448;2023-03-03T05:48:47;105.63;;;21.03;;
8474;SDS011;4274;52.012;8.448;2023-03-03T05:51:12;117.33;;;22.67;;
8474;SDS011;4274;52.012;8.448;2023-03-03T05:53:38;106.60;;;22.07;;
8474;SDS011;4274;52.012;8.448;2023-03-03T05:56:04;127.73;;;23.70;;
8474;SDS011;4274;52.012;8.448;2023-03-03T05:58:30;112.30;;;23.30;;
8474;SDS011;4274;52.012;8.448;2023-03-03T06:00:56;121.40;;;24.90;;
8474;SDS011;4274;52.012;8.448;2023-03-03T06:03:21;104.13;;;21.30;;
8474;SDS011;4274;52.012;8.448;2023-03-03T06:05:47;102.87;;;20.47;;
8474;SDS011;4274;52.012;8.448;2023-03-03T06:08:13;112.70;;;21.40;;
8474;SDS011;4274;52.012;8.448;2023-03-03T06:10:38;118.37;;;22.20;;
8474;SDS011;4274;52.012;8.448;2023-03-03T06:13:04;109.10;;;22.73;;
8474;SDS011;4274;52.012;8.448;2023-03-03T06:15:29;113.87;;;24.03;;
8474;SDS011;4274;52.012;8.448;2023-03-03T06:17:55;118.10;;;24.00;;
8474;SDS011;4274;52.012;8.448;2023-03-03T06:20:21;107.37;;;25.23;;
8474;SDS011;4274;52.012;8.448;2023-03-03T06:22:46;112.53;;;26.13;;
8474;SDS011;4274;52.012;8.448;2023-03-03T06:25:12;109.10;;;23.20;;
8474;SDS011;4274;52.012;8.448;2023-03-03T06:27:38;110.67;;;21.90;;
8474;SDS011;4274;52.012;8.448;2023-03-03T06:30:03;119.17;;;23.47;;
8474;SDS011;4274;52.012;8.448;2023-03-03T06:32:29;110.43;;;22.13;;
8474;SDS011;4274;52.012;8.448;2023-03-03T06:34:55;116.77;;;22.40;;
8474;SDS011;4274;52.012;8.448;2023-03-03T06:37:21;106.87;;;20.83;;
8474;SDS011;4274;52.012;8.448;2023-03-03T06:39:46;125.45;;;25.30;;
8474;SDS011;4274;52.012;8.448;2023-03-03T06:42:12;126.77;;;26.20;;
8474;SDS011;4274;52.012;8.448;2023-03-03T06:44:37;122.40;;;25.17;;
8474;SDS011;4274;52.012;8.448;2023-03-03T06:47:03;124.47;;;23.47;;
8474;SDS011;4274;52.012;8.448;2023-03-03T06:49:29;127.50;;;24.73;;
8474;SDS011;4274;52.012;8.448;2023-03-03T06:51:56;116.90;;;24.10;;
8474;SDS011;4274;52.012;8.448;2023-03-03T06:54:28;111.77;;;23.40;;
8474;SDS011;4274;52.012;8.448;2023-03-03T06:56:56;117.73;;;26.40;;
8474;SDS011;4274;52.012;8.448;2023-03-03T06:59:25;113.70;;;23.60;;
8474;SDS011;4274;52.012;8.448;2023-03-03T07:01:51;122.07;;;26.40;;
8474;SDS011;4274;52.012;8.448;2023-03-03T07:04:25;111.80;;;24.60;;
8474;SDS011;4274;52.012;8.448;2023-03-03T07:07:40;115.00;;;24.93;;
8474;SDS011;4274;52.012;8.448;2023-03-03T07:09:43;130.53;;;24.07;;
8474;SDS011;4274;52.012;8.448;2023-03-03T07:12:12;120.47;;;25.00;;
8474;SDS011;4274;52.012;8.448;2023-03-03T07:14:47;112.30;;;25.00;;
8474;SDS011;4274;52.012;8.448;2023-03-03T07:17:19;112.13;;;21.73;;
8474;SDS011;4274;52.012;8.448;2023-03-03T07:19:47;115.10;;;24.07;;
8474;SDS011;4274;52.012;8.448;2023-03-03T07:24:45;115.27;;;24.43;;
8474;SDS011;4274;52.012;8.448;2023-03-03T07:29:47;102.77;;;22.60;;
8474;SDS011;4274;52.012;8.448;2023-03-03T07:33:00;112.90;;;23.93;;
8474;SDS011;4274;52.012;8.448;2023-03-03T07:35:12;111.57;;;22.57;;
8474;SDS011;4274;52.012;8.448;2023-03-03T07:40:53;111.73;;;23.00;;
8474;SDS011;4274;52.012;8.448;2023-03-03T07:45:52;118.43;;;24.40;;
8474;SDS011;4274;52.012;8.448;2023-03-03T07:48:29;120.70;;;25.47;;
8474;SDS011;4274;52.012;8.448;2023-03-03T07:51:00;109.40;;;22.53;;
8474;SDS011;4274;52.012;8.448;2023-03-03T07:53:29;110.50;;;22.37;;
8474;SDS011;4274;52.012;8.448;2023-03-03T07:55:59;106.27;;;23.77;;
8474;SDS011;4274;52.012;8.448;2023-03-03T07:58:38;116.90;;;26.00;;
8474;SDS011;4274;52.012;8.448;2023-03-03T08:03:52;99.07;;;23.77;;
8474;SDS011;4274;52.012;8.448;2023-03-03T08:09:00;103.87;;;21.97;;
8474;SDS011;4274;52.012;8.448;2023-03-03T08:11:47;113.97;;;21.80;;
8474;SDS011;4274;52.012;8.448;2023-03-03T08:14:14;102.90;;;22.40;;
8474;SDS011;4274;52.012;8.448;2023-03-03T08:16:42;107.23;;;25.10;;
8474;SDS011;4274;52.012;8.448;2023-03-03T08:19:08;100.73;;;21.60;;
8474;SDS011;4274;52.012;8.448;2023-03-03T08:21:37;97.63;;;20.37;;
8474;SDS011;4274;52.012;8.448;2023-03-03T08:24:03;102.50;;;21.63;;
8474;SDS011;4274;52.012;8.448;2023-03-03T08:26:29;105.23;;;22.20;;
8474;SDS011;4274;52.012;8.448;2023-03-03T08:28:55;112.43;;;21.50;;
8474;SDS011;4274;52.012;8.448;2023-03-03T08:31:20;99.43;;;21.57;;
8474;SDS011;4274;52.012;8.448;2023-03-03T08:33:46;103.10;;;24.60;;
8474;SDS011;4274;52.012;8.448;2023-03-03T08:36:12;98.43;;;23.10;;
8474;SDS011;4274;52.012;8.448;2023-03-03T08:38:38;100.70;;;22.50;;
8474;SDS011;4274;52.012;8.448;2023-03-03T08:41:04;107.30;;;22.13;;
8474;SDS011;4274;52.012;8.448;2023-03-03T08:43:30;89.80;;;22.37;;
8474;SDS011;4274;52.012;8.448;2023-03-03T08:45:57;100.57;;;22.70;;
8474;SDS011;4274;52.012;8.448;2023-03-03T08:48:25;105.17;;;23.67;;
8474;SDS011;4274;52.012;8.448;2023-03-03T08:50:51;102.87;;;22.33;;
8474;SDS011;4274;52.012;8.448;2023-03-03T08:53:18;98.53;;;22.23;;
8474;SDS011;4274;52.012;8.448;2023-03-03T08:55:45;94.23;;;21.57;;
8474;SDS011;4274;52.012;8.448;2023-03-03T08:58:12;97.00;;;21.33;;
8474;SDS011;4274;52.012;8.448;2023-03-03T09:00:38;99.23;;;21.33;;
8474;SDS011;4274;52.012;8.448;2023-03-03T09:03:05;91.17;;;21.57;;
8474;SDS011;4274;52.012;8.448;2023-03-03T09:05:31;103.97;;;22.03;;
8474;SDS011;4274;52.012;8.448;2023-03-03T09:07:58;94.10;;;20.63;;
8474;SDS011;4274;52.012;8.448;2023-03-03T09:10:25;90.03;;;20.30;;
8474;SDS011;4274;52.012;8.448;2023-03-03T09:12:55;98.07;;;20.93;;
8474;SDS011;4274;52.012;8.448;2023-03-03T09:15:26;94.03;;;20.10;;
8474;SDS011;4274;52.012;8.448;2023-03-03T09:18:40;99.00;;;23.40;;
8474;SDS011;4274;52.012;8.448;2023-03-03T09:20:56;81.03;;;18.47;;
8474;SDS011;4274;52.012;8.448;2023-03-03T09:28:42;93.33;;;20.60;;
8474;SDS011;4274;52.012;8.448;2023-03-03T09:31:16;88.73;;;18.43;;
8474;SDS011;4274;52.012;8.448;2023-03-03T09:33:47;101.50;;;23.30;;
8474;SDS011;4274;52.012;8.448;2023-03-03T09:38:50;84.43;;;18.93;;
8474;SDS011;4274;52.012;8.448;2023-03-03T09:58:18;89.27;;;21.10;;
8474;SDS011;4274;52.012;8.448;2023-03-03T10:04:03;73.50;;;16.50;;
8474;SDS011;4274;52.012;8.448;2023-03-03T10:15:03;82.47;;;17.47;;
8474;SDS011;4274;52.012;8.448;2023-03-03T10:22:55;83.70;;;19.27;;
8474;SDS011;4274;52.012;8.448;2023-03-03T10:25:35;84.43;;;18.60;;
8474;SDS011;4274;52.012;8.448;2023-03-03T10:37:06;82.47;;;19.20;;
8474;SDS011;4274;52.012;8.448;2023-03-03T10:47:38;80.30;;;16.87;;
8474;SDS011;4274;52.012;8.448;2023-03-03T10:52:50;84.13;;;18.00;;
8474;SDS011;4274;52.012;8.448;2023-03-03T11:09:01;89.57;;;20.27;;
8474;SDS011;4274;52.012;8.448;2023-03-03T11:11:46;90.30;;;19.33;;
8474;SDS011;4274;52.012;8.448;2023-03-03T11:14:38;79.77;;;19.80;;
8474;SDS011;4274;52.012;8.448;2023-03-03T11:33:22;86.17;;;19.00;;
8474;SDS011;4274;52.012;8.448;2023-03-03T11:38:32;83.77;;;18.87;;
8474;SDS011;4274;52.012;8.448;2023-03-03T11:43:57;80.90;;;17.60;;
8474;SDS011;4274;52.012;8.448;2023-03-03T11:52:48;90.87;;;20.60;;
8474;SDS011;4274;52.012;8.448;2023-03-03T11:55:31;83.17;;;19.63;;
8474;SDS011;4274;52.012;8.448;2023-03-03T12:08:50;82.67;;;18.97;;
8474;SDS011;4274;52.012;8.448;2023-03-03T12:14:52;79.67;;;18.20;;
8474;SDS011;4274;52.012;8.448;2023-03-03T12:22:51;70.70;;;15.87;;
8474;SDS011;4274;52.012;8.448;2023-03-03T12:25:24;76.97;;;17.70;;
8474;SDS011;4274;52.012;8.448;2023-03-03T12:28:02;78.30;;;18.17;;
8474;SDS011;4274;52.012;8.448;2023-03-03T12:42:24;77.23;;;18.47;;
8474;SDS011;4274;52.012;8.448;2023-03-03T12:47:59;72.50;;;15.80;;
8474;SDS011;4274;52.012;8.448;2023-03-03T12:53:39;72.83;;;16.73;;
8474;SDS011;4274;52.012;8.448;2023-03-03T12:56:37;78.20;;;16.77;;
8474;SDS011;4274;52.012;8.448;2023-03-03T13:12:33;87.63;;;17.37;;
8474;SDS011;4274;52.012;8.448;2023-03-03T13:15:27;72.60;;;16.00;;
8474;SDS011;4274;52.012;8.448;2023-03-03T13:20:37;71.63;;;17.30;;
8474;SDS011;4274;52.012;8.448;2023-03-03T13:28:54;70.80;;;16.07;;
8474;SDS011;4274;52.012;8.448;2023-03-03T13:31:32;71.83;;;16.30;;
8474;SDS011;4274;52.012;8.448;2023-03-03T13:34:03;70.60;;;15.80;;
8474;SDS011;4274;52.012;8.448;2023-03-03T13:36:32;69.90;;;15.23;;
8474;SDS011;4274;52.012;8.448;2023-03-03T13:39:25;71.67;;;16.83;;
8474;SDS011;4274;52.012;8.448;2023-03-03T13:42:03;68.60;;;14.27;;
8474;SDS011;4274;52.012;8.448;2023-03-03T13:44:42;68.07;;;14.97;;
8474;SDS011;4274;52.012;8.448;2023-03-03T13:52:46;70.63;;;14.77;;
8474;SDS011;4274;52.012;8.448;2023-03-03T13:55:48;63.00;;;13.23;;
8474;SDS011;4274;52.012;8.448;2023-03-03T14:01:16;65.30;;;13.10;;
8474;SDS011;4274;52.012;8.448;2023-03-03T14:06:37;71.87;;;14.00;;
8474;SDS011;4274;52.012;8.448;2023-03-03T14:22:45;66.30;;;13.30;;
8474;SDS011;4274;52.012;8.448;2023-03-03T14:26:04;65.50;;;13.33;;
8474;SDS011;4274;52.012;8.448;2023-03-03T14:28:42;69.17;;;14.10;;
8474;SDS011;4274;52.012;8.448;2023-03-03T14:31:43;102.07;;;14.50;;
8474;SDS011;4274;52.012;8.448;2023-03-03T14:36:37;61.07;;;11.87;;
8474;SDS011;4274;52.012;8.448;2023-03-03T14:42:10;63.90;;;13.07;;
8474;SDS011;4274;52.012;8.448;2023-03-03T14:44:55;59.50;;;12.13;;
8474;SDS011;4274;52.012;8.448;2023-03-03T14:47:23;63.73;;;11.93;;
8474;SDS011;4274;52.012;8.448;2023-03-03T14:49:53;59.30;;;12.00;;
8474;SDS011;4274;52.012;8.448;2023-03-03T14:52:32;66.07;;;12.60;;
8474;SDS011;4274;52.012;8.448;2023-03-03T14:54:59;62.20;;;13.20;;
8474;SDS011;4274;52.012;8.448;2023-03-03T15:07:58;63.83;;;12.90;;
8474;SDS011;4274;52.012;8.448;2023-03-03T15:10:37;64.60;;;13.17;;
8474;SDS011;4274;52.012;8.448;2023-03-03T15:15:59;64.33;;;12.30;;
8474;SDS011;4274;52.012;8.448;2023-03-03T15:18:28;72.20;;;12.60;;
8474;SDS011;4274;52.012;8.448;2023-03-03T15:21:03;61.97;;;13.70;;
8474;SDS011;4274;52.012;8.448;2023-03-03T15:23:36;84.23;;;14.50;;
8474;SDS011;4274;52.012;8.448;2023-03-03T15:34:56;64.97;;;14.10;;
8474;SDS011;4274;52.012;8.448;2023-03-03T15:37:55;66.83;;;14.60;;
8474;SDS011;4274;52.012;8.448;2023-03-03T15:43:02;67.27;;;14.90;;
8474;SDS011;4274;52.012;8.448;2023-03-03T15:45:36;69.10;;;14.80;;
8474;SDS011;4274;52.012;8.448;2023-03-03T16:02:21;69.57;;;14.90;;
8474;SDS011;4274;52.012;8.448;2023-03-03T16:10:18;79.73;;;19.60;;
8474;SDS011;4274;52.012;8.448;2023-03-03T16:15:33;82.47;;;21.43;;
8474;SDS011;4274;52.012;8.448;2023-03-03T16:18:22;82.47;;;19.30;;
8474;SDS011;4274;52.012;8.448;2023-03-03T16:20:57;84.77;;;20.57;;
8474;SDS011;4274;52.012;8.448;2023-03-03T16:42:43;81.30;;;19.13;;
8474;SDS011;4274;52.012;8.448;2023-03-03T16:45:15;77.93;;;18.80;;
8474;SDS011;4274;52.012;8.448;2023-03-03T16:50:27;77.60;;;17.67;;
8474;SDS011;4274;52.012;8.448;2023-03-03T16:55:46;79.07;;;18.40;;
8474;SDS011;4274;52.012;8.448;2023-03-03T16:58:21;74.17;;;17.43;;
8474;SDS011;4274;52.012;8.448;2023-03-03T17:03:50;84.57;;;19.73;;
8474;SDS011;4274;52.012;8.448;2023-03-03T17:06:38;74.93;;;18.00;;
8474;SDS011;4274;52.012;8.448;2023-03-03T17:14:32;76.83;;;17.13;;
8474;SDS011;4274;52.012;8.448;2023-03-03T17:17:22;82.60;;;18.47;;
8474;SDS011;4274;52.012;8.448;2023-03-03T17:22:41;84.30;;;18.73;;
8474;SDS011;4274;52.012;8.448;2023-03-03T17:38:38;79.77;;;17.80;;
8474;SDS011;4274;52.012;8.448;2023-03-03T17:46:58;74.63;;;20.03;;
8474;SDS011;4274;52.012;8.448;2023-03-03T17:52:25;81.73;;;19.10;;
8474;SDS011;4274;52.012;8.448;2023-03-03T18:09:32;95.93;;;22.67;;
8474;SDS011;4274;52.012;8.448;2023-03-03T18:12:11;84.53;;;21.77;;
8474;SDS011;4274;52.012;8.448;2023-03-03T18:17:31;83.20;;;22.70;;
8474;SDS011;4274;52.012;8.448;2023-03-03T18:20:16;85.27;;;21.63;;
8474;SDS011;4274;52.012;8.448;2023-03-03T18:22:48;79.37;;;21.63;;
8474;SDS011;4274;52.012;8.448;2023-03-03T18:25:21;96.00;;;23.87;;
8474;SDS011;4274;52.012;8.448;2023-03-03T18:28:20;83.60;;;21.87;;
8474;SDS011;4274;52.012;8.448;2023-03-03T18:30:59;83.93;;;20.80;;
8474;SDS011;4274;52.012;8.448;2023-03-03T18:33:40;90.27;;;25.70;;
8474;SDS011;4274;52.012;8.448;2023-03-03T18:38:56;92.07;;;23.30;;
8474;SDS011;4274;52.012;8.448;2023-03-03T18:41:25;100.90;;;22.27;;
8474;SDS011;4274;52.012;8.448;2023-03-03T18:44:00;86.23;;;22.30;;
8474;SDS011;4274;52.012;8.448;2023-03-03T18:46:47;80.93;;;19.83;;
8474;SDS011;4274;52.012;8.448;2023-03-03T18:49:13;81.40;;;20.10;;
8474;SDS011;4274;52.012;8.448;2023-03-03T19:04:36;88.47;;;19.37;;
8474;SDS011;4274;52.012;8.448;2023-03-03T19:07:18;84.17;;;21.30;;
8474;SDS011;4274;52.012;8.448;2023-03-03T19:18:04;81.80;;;21.33;;
8474;SDS011;4274;52.012;8.448;2023-03-03T19:20:42;85.03;;;20.90;;
8474;SDS011;4274;52.012;8.448;2023-03-03T19:23:11;90.23;;;21.40;;
8474;SDS011;4274;52.012;8.448;2023-03-03T19:25:40;83.37;;;20.67;;
8474;SDS011;4274;52.012;8.448;2023-03-03T19:31:00;82.93;;;21.40;;
8474;SDS011;4274;52.012;8.448;2023-03-03T19:33:46;83.30;;;21.20;;
8474;SDS011;4274;52.012;8.448;2023-03-03T19:36:32;80.10;;;20.10;;
8474;SDS011;4274;52.012;8.448;2023-03-03T19:52:52;77.03;;;19.40;;
8474;SDS011;4274;52.012;8.448;2023-03-03T20:00:46;75.10;;;18.50;;
8474;SDS011;4274;52.012;8.448;2023-03-03T20:03:48;77.13;;;16.90;;
8474;SDS011;4274;52.012;8.448;2023-03-03T20:25:18;79.50;;;20.53;;
8474;SDS011;4274;52.012;8.448;2023-03-03T20:34:01;81.37;;;20.10;;
8474;SDS011;4274;52.012;8.448;2023-03-03T20:36:51;74.70;;;18.60;;
8474;SDS011;4274;52.012;8.448;2023-03-03T20:39:32;85.50;;;20.37;;
8474;SDS011;4274;52.012;8.448;2023-03-03T20:42:12;80.63;;;20.20;;
8474;SDS011;4274;52.012;8.448;2023-03-03T20:44:51;75.07;;;18.73;;
8474;SDS011;4274;52.012;8.448;2023-03-03T20:50:16;83.70;;;19.00;;
8474;SDS011;4274;52.012;8.448;2023-03-03T20:56:00;85.30;;;21.43;;
8474;SDS011;4274;52.012;8.448;2023-03-03T20:58:37;83.63;;;22.33;;
8474;SDS011;4274;52.012;8.448;2023-03-03T21:01:11;80.33;;;21.10;;
8474;SDS011;4274;52.012;8.448;2023-03-03T21:03:40;78.40;;;20.63;;
8474;SDS011;4274;52.012;8.448;2023-03-03T21:06:15;82.27;;;20.43;;
8474;SDS011;4274;52.012;8.448;2023-03-03T21:08:45;77.33;;;19.67;;
8474;SDS011;4274;52.012;8.448;2023-03-03T21:11:14;78.90;;;18.80;;
8474;SDS011;4274;52.012;8.448;2023-03-03T21:13:44;74.27;;;18.73;;
8474;SDS011;4274;52.012;8.448;2023-03-03T21:19:00;81.40;;;19.90;;
8474;SDS011;4274;52.012;8.448;2023-03-03T21:21:27;81.23;;;19.30;;
8474;SDS011;4274;52.012;8.448;2023-03-03T21:23:56;79.93;;;20.70;;
8474;SDS011;4274;52.012;8.448;2023-03-03T21:29:14;71.33;;;18.70;;
8474;SDS011;4274;52.012;8.448;2023-03-03T21:31:54;79.67;;;20.17;;
8474;SDS011;4274;52.012;8.448;2023-03-03T21:34:23;82.80;;;22.50;;
8474;SDS011;4274;52.012;8.448;2023-03-03T21:36:51;84.47;;;23.57;;
8474;SDS011;4274;52.012;8.448;2023-03-03T21:39:22;87.53;;;21.43;;
8474;SDS011;4274;52.012;8.448;2023-03-03T21:44:46;80.27;;;21.13;;
8474;SDS011;4274;52.012;8.448;2023-03-03T21:47:19;87.13;;;21.23;;
8474;SDS011;4274;52.012;8.448;2023-03-03T21:49:47;76.30;;;18.60;;
8474;SDS011;4274;52.012;8.448;2023-03-03T21:52:15;76.10;;;21.40;;
8474;SDS011;4274;52.012;8.448;2023-03-03T21:54:42;81.87;;;21.27;;
8474;SDS011;4274;52.012;8.448;2023-03-03T21:57:09;79.90;;;20.20;;
8474;SDS011;4274;52.012;8.448;2023-03-03T21:59:35;79.00;;;21.47;;
8474;SDS011;4274;52.012;8.448;2023-03-03T22:02:01;82.53;;;21.50;;
8474;SDS011;4274;52.012;8.448;2023-03-03T22:04:27;81.50;;;20.73;;
8474;SDS011;4274;52.012;8.448;2023-03-03T22:06:53;78.17;;;20.90;;
8474;SDS011;4274;52.012;8.448;2023-03-03T22:09:19;89.63;;;21.97;;
8474;SDS011;4274;52.012;8.448;2023-03-03T22:11:45;77.50;;;22.03;;
8474;SDS011;4274;52.012;8.448;2023-03-03T22:14:11;83.90;;;21.50;;
8474;SDS011;4274;52.012;8.448;2023-03-03T22:16:37;78.37;;;20.80;;